Time;durP1;ratioP1;P1;durP2;ratioP2;P2;SDS_P1;SDS_P2;PMS_P1;PMS_P2;Temp;Humidity;BMP_temperature;BMP_pressure;BME280_temperature;BME280_humidity;BME280_pressure;Samples;Min_cycle;Max_cycle;Signal;HPM_P1;HPM_P2
2022/04/04 00:00:07;;;;;;;;;;;19.90;44.40;;;;;;5125328;27;43291;-73
2022/04/04 00:02:33;;;;;;;;;;;19.80;44.30;;;;;;5126063;27;42956;-75
2022/04/04 00:04:58;;;;;;;;;;;19.90;44.40;;;;;;5125598;27;43219;-74
2022/04/04 00:07:25;;;;;;;;;;;19.80;44.40;;;;;;5123849;27;43133;-74
2022/04/04 00:09:51;;;;;;;;;;;19.90;45.00;;;;;;5125981;27;43766;-74
2022/04/04 00:12:17;;;;;;;;;;;19.90;44.40;;;;;;5126045;27;43044;-75
2022/04/04 00:14:43;;;;;;;;;;;19.80;44.40;;;;;;5125120;27;42844;-76
2022/04/04 00:17:09;;;;;;;;;;;19.90;44.50;;;;;;5124867;27;43050;-74
2022/04/04 00:19:34;;;;;;;;;;;19.90;44.50;;;;;;5125778;27;43565;-76
2022/04/04 00:22:00;;;;;;;;;;;19.90;44.50;;;;;;5125660;27;42967;-76
2022/04/04 00:24:25;;;;;;;;;;;19.90;44.50;;;;;;5126054;27;42770;-74
2022/04/04 00:26:51;;;;;;;;;;;19.90;44.50;;;;;;5124768;27;43054;-74
2022/04/04 00:29:18;;;;;;;;;;;19.90;44.50;;;;;;5124730;27;43144;-75
2022/04/04 00:31:44;;;;;;;;;;;19.90;44.60;;;;;;5126077;27;42820;-73
2022/04/04 00:34:10;;;;;;;;;;;19.90;44.60;;;;;;5125298;27;42989;-74
2022/04/04 00:36:35;;;;;;;;;;;19.90;44.60;;;;;;5125612;27;43013;-74
2022/04/04 00:39:01;;;;;;;;;;;19.90;44.60;;;;;;5125211;27;43760;-75
2022/04/04 00:41:26;;;;;;;;;;;19.90;44.60;;;;;;5124704;27;42888;-74
2022/04/04 00:43:52;;;;;;;;;;;19.90;44.60;;;;;;5125680;27;42867;-75
2022/04/04 00:46:18;;;;;;;;;;;19.90;45.20;;;;;;5125905;27;43060;-75
2022/04/04 00:48:44;;;;;;;;;;;19.90;44.70;;;;;;5116415;27;44157;-74
2022/04/04 00:51:09;;;;;;;;;;;19.90;44.70;;;;;;5108779;27;43172;-75
2022/04/04 00:53:35;;;;;;;;;;;19.90;44.80;;;;;;5125514;27;43092;-76
2022/04/04 00:56:01;;;;;;;;;;;19.90;44.70;;;;;;5117336;27;42907;-74
2022/04/04 00:58:29;;;;;;;;;;;19.90;44.70;;;;;;5104734;27;42879;-75
2022/04/04 01:00:54;;;;;;;;;;;19.90;44.80;;;;;;5105108;27;43000;-75
2022/04/04 01:03:20;;;;;;;;;;;19.90;44.80;;;;;;5104892;27;43104;-73
2022/04/04 01:05:46;;;;;;;;;;;19.90;44.80;;;;;;5105067;27;42978;-73
2022/04/04 01:08:14;;;;;;;;;;;19.90;44.80;;;;;;5105133;27;43532;-76
2022/04/04 01:10:40;;;;;;;;;;;20.00;44.80;;;;;;5104601;27;42797;-74
2022/04/04 01:13:06;;;;;;;;;;;19.90;44.80;;;;;;5104550;27;43457;-76
2022/04/04 01:15:32;;;;;;;;;;;19.90;44.80;;;;;;5104714;27;43165;-74
2022/04/04 01:17:59;;;;;;;;;;;19.90;44.80;;;;;;5104603;27;42983;-73
2022/04/04 01:20:24;;;;;;;;;;;19.90;45.30;;;;;;5107902;27;43047;-75
2022/04/04 01:22:50;;;;;;;;;;;19.90;44.80;;;;;;5108638;27;44087;-75
2022/04/04 01:25:22;;;;;;;;;;;19.90;44.90;;;;;;5108440;27;43031;-76
2022/04/04 01:27:47;;;;;;;;;;;20.00;44.90;;;;;;5113652;27;42818;-75
2022/04/04 01:30:13;;;;;;;;;;;19.90;44.90;;;;;;5129192;27;43039;-77
2022/04/04 01:32:39;;;;;;;;;;;19.90;44.90;;;;;;5128193;27;43645;-73
2022/04/04 01:35:05;;;;;;;;;;;19.90;44.90;;;;;;5128613;27;42958;-75
2022/04/04 01:37:31;;;;;;;;;;;19.90;44.90;;;;;;5128844;27;43147;-75
2022/04/04 01:39:57;;;;;;;;;;;19.90;44.90;;;;;;5127408;27;43069;-76
2022/04/04 01:42:22;;;;;;;;;;;20.00;45.00;;;;;;5127864;27;43641;-73
2022/04/04 01:44:48;;;;;;;;;;;19.90;45.00;;;;;;5127943;27;43133;-74
2022/04/04 01:47:13;;;;;;;;;;;20.00;45.10;;;;;;5128494;27;43660;-72
2022/04/04 01:49:39;;;;;;;;;;;19.90;45.00;;;;;;5129005;27;43052;-74
2022/04/04 01:52:04;;;;;;;;;;;20.00;45.10;;;;;;5128726;27;43591;-74
2022/04/04 01:54:30;;;;;;;;;;;20.00;45.10;;;;;;5127261;27;44214;-74
2022/04/04 01:56:55;;;;;;;;;;;20.00;45.10;;;;;;5127196;27;43494;-73
2022/04/04 01:59:22;;;;;;;;;;;19.90;45.10;;;;;;5128095;27;42939;-78
2022/04/04 02:01:47;;;;;;;;;;;20.00;45.10;;;;;;5128331;27;42958;-75
2022/04/04 02:04:13;;;;;;;;;;;20.00;45.20;;;;;;5128063;27;42974;-75
2022/04/04 02:06:39;;;;;;;;;;;20.00;45.20;;;;;;5127889;27;42956;-75
2022/04/04 02:09:05;;;;;;;;;;;20.00;45.20;;;;;;5127227;27;43049;-73
2022/04/04 02:11:30;;;;;;;;;;;20.00;45.30;;;;;;5127144;27;43559;-74
2022/04/04 02:13:58;;;;;;;;;;;20.00;45.30;;;;;;5127499;27;42966;-77
2022/04/04 02:16:24;;;;;;;;;;;20.00;45.30;;;;;;5127005;27;43375;-74
2022/04/04 02:18:50;;;;;;;;;;;20.00;45.30;;;;;;5127486;27;43183;-74
2022/04/04 02:21:16;;;;;;;;;;;20.00;45.30;;;;;;5127699;27;43607;-74
2022/04/04 02:23:41;;;;;;;;;;;20.00;45.40;;;;;;5128962;27;42817;-74
2022/04/04 02:26:07;;;;;;;;;;;20.00;45.40;;;;;;5127649;27;42947;-74
2022/04/04 02:28:33;;;;;;;;;;;20.00;45.40;;;;;;5126786;27;43126;-74
2022/04/04 02:30:58;;;;;;;;;;;20.00;45.40;;;;;;5125533;27;43016;-76
2022/04/04 02:33:24;;;;;;;;;;;20.00;45.50;;;;;;5127706;27;42971;-74
2022/04/04 02:35:50;;;;;;;;;;;20.00;45.50;;;;;;5127507;27;43206;-77
2022/04/04 02:38:17;;;;;;;;;;;20.00;45.50;;;;;;5127572;27;42920;-77
2022/04/04 02:40:43;;;;;;;;;;;20.00;45.50;;;;;;5126692;27;43183;-74
2022/04/04 02:43:09;;;;;;;;;;;20.00;45.50;;;;;;5126902;27;43122;-75
2022/04/04 02:45:35;;;;;;;;;;;20.00;45.50;;;;;;5127031;27;43589;-74
2022/04/04 02:48:01;;;;;;;;;;;20.00;45.60;;;;;;5127415;27;42926;-77
2022/04/04 02:50:27;;;;;;;;;;;20.00;45.60;;;;;;5128017;27;42803;-73
2022/04/04 02:52:52;;;;;;;;;;;20.00;45.60;;;;;;5126716;27;43080;-76
2022/04/04 02:58:03;;;;;;;;;;;20.10;45.60;;;;;;5126905;27;42935;-76
2022/04/04 03:00:28;;;;;;;;;;;20.00;45.60;;;;;;5126880;27;43373;-75
2022/04/04 03:02:55;;;;;;;;;;;20.00;45.70;;;;;;5126677;27;43130;-74
2022/04/04 03:05:20;;;;;;;;;;;20.00;45.70;;;;;;5126958;27;43011;-77
2022/04/04 03:07:46;;;;;;;;;;;20.10;45.80;;;;;;5126850;27;42963;-76
2022/04/04 03:10:12;;;;;;;;;;;20.00;45.80;;;;;;5125803;27;43633;-75
2022/04/04 03:12:44;;;;;;;;;;;20.00;45.80;;;;;;5127480;27;42948;-73
2022/04/04 03:15:14;;;;;;;;;;;20.00;45.80;;;;;;5125900;27;43665;-75
2022/04/04 03:17:44;;;;;;;;;;;20.00;45.90;;;;;;5131417;27;42872;-74
2022/04/04 03:20:11;;;;;;;;;;;20.00;45.90;;;;;;5137670;27;42953;-74
2022/04/04 03:22:37;;;;;;;;;;;20.10;46.00;;;;;;5126407;27;42908;-73
2022/04/04 03:25:03;;;;;;;;;;;20.10;46.00;;;;;;5126690;27;43857;-75
2022/04/04 03:27:29;;;;;;;;;;;20.00;46.00;;;;;;5126997;27;42813;-77
2022/04/04 03:29:54;;;;;;;;;;;20.00;46.00;;;;;;5127157;27;42821;-77
2022/04/04 03:32:20;;;;;;;;;;;20.00;46.10;;;;;;5126954;27;42835;-73
2022/04/04 03:34:46;;;;;;;;;;;20.10;46.10;;;;;;5126580;27;42909;-76
2022/04/04 03:37:12;;;;;;;;;;;20.00;46.10;;;;;;5126408;27;42994;-73
2022/04/04 03:39:37;;;;;;;;;;;20.00;46.20;;;;;;5126424;27;42997;-76
2022/04/04 03:42:03;;;;;;;;;;;20.00;46.30;;;;;;5124528;27;43020;-76
2022/04/04 03:44:28;;;;;;;;;;;20.00;46.30;;;;;;5126445;27;42933;-73
2022/04/04 03:46:54;;;;;;;;;;;20.00;46.40;;;;;;5126099;27;42893;-73
2022/04/04 03:49:20;;;;;;;;;;;20.10;46.40;;;;;;5126757;27;42952;-75
2022/04/04 03:51:45;;;;;;;;;;;20.00;46.40;;;;;;5126696;27;43043;-75
2022/04/04 03:54:12;;;;;;;;;;;20.10;46.50;;;;;;5126082;27;43499;-77
2022/04/04 03:56:38;;;;;;;;;;;20.10;46.60;;;;;;5128198;27;43455;-73
2022/04/04 03:59:04;;;;;;;;;;;20.10;46.60;;;;;;5146745;27;42938;-73
2022/04/04 04:01:30;;;;;;;;;;;20.00;46.40;;;;;;5146479;27;42924;-73
2022/04/04 04:03:56;;;;;;;;;;;20.10;46.50;;;;;;5146781;27;43813;-74
2022/04/04 04:06:22;;;;;;;;;;;20.10;46.50;;;;;;5147126;27;43084;-75
2022/04/04 04:08:48;;;;;;;;;;;20.10;46.50;;;;;;5137684;27;43859;-76
2022/04/04 04:11:14;;;;;;;;;;;20.10;46.40;;;;;;5125928;27;42935;-74
2022/04/04 04:13:41;;;;;;;;;;;20.10;46.50;;;;;;5125600;27;42839;-74
2022/04/04 04:16:09;;;;;;;;;;;20.10;46.50;;;;;;5125361;27;43495;-75
2022/04/04 04:18:37;;;;;;;;;;;20.10;46.50;;;;;;5125963;27;43404;-73
2022/04/04 04:21:04;;;;;;;;;;;20.00;46.50;;;;;;5136427;27;42997;-73
2022/04/04 04:23:29;;;;;;;;;;;20.10;46.60;;;;;;5140372;27;42883;-73
2022/04/04 04:25:55;;;;;;;;;;;20.00;46.50;;;;;;5125826;27;43040;-74
2022/04/04 04:28:21;;;;;;;;;;;20.00;46.70;;;;;;5133452;27;42894;-73
2022/04/04 04:30:46;;;;;;;;;;;20.00;46.70;;;;;;5126319;27;42991;-74
2022/04/04 04:33:12;;;;;;;;;;;20.10;46.70;;;;;;5125837;27;43520;-75
2022/04/04 04:35:38;;;;;;;;;;;20.10;46.70;;;;;;5125792;27;43030;-74
2022/04/04 04:38:04;;;;;;;;;;;20.10;46.70;;;;;;5125765;27;43275;-75
2022/04/04 04:40:29;;;;;;;;;;;20.10;46.70;;;;;;5125705;27;42877;-75
2022/04/04 04:42:55;;;;;;;;;;;20.10;46.70;;;;;;5125497;27;43913;-75
2022/04/04 04:45:21;;;;;;;;;;;20.00;46.80;;;;;;5125233;27;42983;-77
2022/04/04 04:47:47;;;;;;;;;;;20.00;46.80;;;;;;5130547;27;43401;-76
2022/04/04 04:50:14;;;;;;;;;;;20.10;46.80;;;;;;5135555;27;43113;-75
2022/04/04 04:52:39;;;;;;;;;;;20.10;46.70;;;;;;5126866;27;43098;-74
2022/04/04 04:55:05;;;;;;;;;;;20.10;46.80;;;;;;5126015;27;43016;-76
2022/04/04 04:57:31;;;;;;;;;;;20.10;46.90;;;;;;5127989;27;43842;-73
2022/04/04 04:59:57;;;;;;;;;;;20.10;47.00;;;;;;5117239;27;42979;-74
2022/04/04 05:02:23;;;;;;;;;;;20.10;47.10;;;;;;5129155;27;44429;-73
2022/04/04 05:04:48;;;;;;;;;;;20.10;47.10;;;;;;5128522;27;42979;-76
2022/04/04 05:07:14;;;;;;;;;;;20.10;47.20;;;;;;5128432;27;43992;-75
2022/04/04 05:09:40;;;;;;;;;;;20.10;47.20;;;;;;5127896;27;43048;-75
2022/04/04 05:12:06;;;;;;;;;;;20.10;47.20;;;;;;5109955;27;44771;-76
2022/04/04 05:14:32;;;;;;;;;;;20.10;47.30;;;;;;5127475;27;43179;-74
2022/04/04 05:16:57;;;;;;;;;;;20.00;47.80;;;;;;5128207;27;43037;-74
2022/04/04 05:19:23;;;;;;;;;;;20.10;47.20;;;;;;5127283;27;42924;-74
2022/04/04 05:21:49;;;;;;;;;;;20.10;47.30;;;;;;5127396;27;42946;-75
2022/04/04 05:24:15;;;;;;;;;;;20.10;47.30;;;;;;5128624;27;42962;-74
2022/04/04 05:26:41;;;;;;;;;;;20.10;47.40;;;;;;5127334;27;43184;-74
2022/04/04 05:29:06;;;;;;;;;;;20.10;47.40;;;;;;5128508;27;42799;-73
2022/04/04 05:31:32;;;;;;;;;;;20.00;47.50;;;;;;5127692;27;42960;-74
2022/04/04 05:33:58;;;;;;;;;;;20.10;47.50;;;;;;5128698;27;43095;-74
2022/04/04 05:36:25;;;;;;;;;;;20.10;47.50;;;;;;5127886;27;43444;-74
2022/04/04 05:38:50;;;;;;;;;;;20.10;47.40;;;;;;5127937;27;43025;-73
2022/04/04 05:41:19;;;;;;;;;;;20.00;47.50;;;;;;5127476;27;43578;-73
2022/04/04 05:43:46;;;;;;;;;;;20.00;47.50;;;;;;5128565;27;43008;-73
2022/04/04 05:46:12;;;;;;;;;;;20.00;47.50;;;;;;5129345;27;42876;-73
2022/04/04 05:48:38;;;;;;;;;;;20.00;48.10;;;;;;5135984;27;43007;-73
2022/04/04 05:51:04;;;;;;;;;;;20.10;47.70;;;;;;5127911;27;42800;-73
2022/04/04 05:53:29;;;;;;;;;;;20.10;47.70;;;;;;5127278;27;43068;-73
2022/04/04 05:55:55;;;;;;;;;;;20.10;47.70;;;;;;5127620;27;44453;-73
2022/04/04 05:58:20;;;;;;;;;;;20.10;47.60;;;;;;5125841;27;43014;-73
2022/04/04 06:00:46;;;;;;;;;;;20.10;47.80;;;;;;5127083;27;43456;-78
2022/04/04 06:03:12;;;;;;;;;;;20.10;47.80;;;;;;5128365;27;43227;-75
2022/04/04 06:05:38;;;;;;;;;;;20.10;47.80;;;;;;5122392;27;43509;-75
2022/04/04 06:08:03;;;;;;;;;;;20.10;47.80;;;;;;5126522;27;42877;-75
2022/04/04 06:10:29;;;;;;;;;;;20.10;47.80;;;;;;5127797;27;43137;-75
2022/04/04 06:12:54;;;;;;;;;;;20.10;47.80;;;;;;5127421;27;43062;-75
2022/04/04 06:15:20;;;;;;;;;;;20.00;47.80;;;;;;5128313;27;42899;-76
2022/04/04 06:17:45;;;;;;;;;;;20.10;47.90;;;;;;5128448;27;43073;-75
2022/04/04 06:20:11;;;;;;;;;;;20.10;48.00;;;;;;5128469;27;42929;-74
2022/04/04 06:22:37;;;;;;;;;;;20.10;48.00;;;;;;5128516;27;42877;-75
2022/04/04 06:25:04;;;;;;;;;;;20.00;47.90;;;;;;5128376;27;43839;-74
2022/04/04 06:27:30;;;;;;;;;;;20.10;48.10;;;;;;5128127;27;42971;-75
2022/04/04 06:29:56;;;;;;;;;;;20.10;48.00;;;;;;5128396;27;43864;-74
2022/04/04 06:32:24;;;;;;;;;;;20.00;48.00;;;;;;5128288;27;42959;-75
2022/04/04 06:34:49;;;;;;;;;;;20.00;48.00;;;;;;5127418;27;43003;-74
2022/04/04 06:37:16;;;;;;;;;;;20.10;48.10;;;;;;5126236;27;43674;-75
2022/04/04 06:39:42;;;;;;;;;;;20.10;48.20;;;;;;5127764;27;43620;-75
2022/04/04 06:42:07;;;;;;;;;;;20.10;48.20;;;;;;5127936;27;42932;-74
2022/04/04 06:44:33;;;;;;;;;;;20.10;48.20;;;;;;5127680;27;43142;-74
2022/04/04 06:46:59;;;;;;;;;;;20.00;48.20;;;;;;5127375;27;42920;-74
2022/04/04 06:49:25;;;;;;;;;;;20.10;48.30;;;;;;5127707;27;43483;-75
2022/04/04 06:51:51;;;;;;;;;;;20.00;48.20;;;;;;5125182;27;42929;-75
2022/04/04 06:54:18;;;;;;;;;;;20.10;48.30;;;;;;5121416;27;42912;-74
2022/04/04 06:56:45;;;;;;;;;;;20.10;48.30;;;;;;5106583;27;43140;-74
2022/04/04 06:59:11;;;;;;;;;;;20.10;48.40;;;;;;5108942;27;43096;-75
2022/04/04 07:01:37;;;;;;;;;;;20.10;48.10;;;;;;5104993;27;43066;-76
2022/04/04 07:04:03;;;;;;;;;;;20.10;48.20;;;;;;5105108;27;43012;-75
2022/04/04 07:06:29;;;;;;;;;;;20.10;48.10;;;;;;5101255;27;43106;-75
2022/04/04 07:08:54;;;;;;;;;;;20.10;48.10;;;;;;5095747;27;43305;-75
2022/04/04 07:11:20;;;;;;;;;;;20.10;48.30;;;;;;5078553;27;43033;-76
2022/04/04 07:13:48;;;;;;;;;;;20.00;48.20;;;;;;5100122;27;42890;-76
2022/04/04 07:16:13;;;;;;;;;;;20.00;48.30;;;;;;5094418;27;43030;-75
2022/04/04 07:18:39;;;;;;;;;;;20.00;48.30;;;;;;5096718;27;43096;-76
2022/04/04 07:21:05;;;;;;;;;;;20.00;48.30;;;;;;5097497;27;43148;-76
2022/04/04 07:23:30;;;;;;;;;;;20.00;48.20;;;;;;5095334;27;42928;-75
2022/04/04 07:25:56;;;;;;;;;;;20.00;48.30;;;;;;5103117;27;43007;-76
2022/04/04 07:28:23;;;;;;;;;;;20.00;48.20;;;;;;5103738;27;42932;-76
2022/04/04 07:30:50;;;;;;;;;;;20.00;48.30;;;;;;5104127;27;43018;-75
2022/04/04 07:33:17;;;;;;;;;;;20.00;48.30;;;;;;5104539;27;43853;-78
2022/04/04 07:35:43;;;;;;;;;;;20.00;48.30;;;;;;5087085;27;43058;-75
2022/04/04 07:38:09;;;;;;;;;;;20.00;48.20;;;;;;5083861;28;42984;-75
2022/04/04 07:40:34;;;;;;;;;;;20.00;48.20;;;;;;5085228;28;42908;-75
2022/04/04 07:43:00;;;;;;;;;;;20.00;48.20;;;;;;5101066;27;43864;-75
2022/04/04 07:45:27;;;;;;;;;;;20.00;48.10;;;;;;5093715;27;43443;-74
2022/04/04 07:47:53;;;;;;;;;;;20.00;48.10;;;;;;5104433;27;42957;-74
2022/04/04 07:50:19;;;;;;;;;;;19.90;47.90;;;;;;5105493;27;43007;-75
2022/04/04 07:52:44;;;;;;;;;;;20.00;47.90;;;;;;5105683;27;42962;-75
2022/04/04 07:55:10;;;;;;;;;;;19.90;47.80;;;;;;5125915;27;43075;-74
2022/04/04 07:57:38;;;;;;;;;;;19.90;47.70;;;;;;5124727;27;63678;-74
2022/04/04 08:00:04;;;;;;;;;;;19.90;47.70;;;;;;5126265;27;42995;-74
2022/04/04 08:02:29;;;;;;;;;;;19.90;47.60;;;;;;5126086;27;43249;-74
2022/04/04 08:04:55;;;;;;;;;;;19.90;47.70;;;;;;5125881;27;43030;-75
2022/04/04 08:07:21;;;;;;;;;;;19.90;47.50;;;;;;5126534;27;43796;-75
2022/04/04 08:09:47;;;;;;;;;;;19.90;47.50;;;;;;5119855;27;43024;-75
2022/04/04 08:12:13;;;;;;;;;;;19.90;47.50;;;;;;5121084;27;43466;-74
2022/04/04 08:14:39;;;;;;;;;;;19.80;47.40;;;;;;5125874;27;43117;-75
2022/04/04 08:17:05;;;;;;;;;;;19.90;47.40;;;;;;5126550;27;43445;-74
2022/04/04 08:19:32;;;;;;;;;;;19.90;47.40;;;;;;5117899;27;43109;-74
2022/04/04 08:21:57;;;;;;;;;;;19.80;47.30;;;;;;5124021;27;43466;-74
2022/04/04 08:24:23;;;;;;;;;;;19.80;47.30;;;;;;5125058;27;43046;-73
2022/04/04 08:26:49;;;;;;;;;;;19.90;47.30;;;;;;5125136;27;43782;-75
2022/04/04 08:29:14;;;;;;;;;;;19.80;47.30;;;;;;5124031;27;42917;-74
2022/04/04 08:31:40;;;;;;;;;;;19.80;47.30;;;;;;5114176;27;43058;-75
2022/04/04 08:34:06;;;;;;;;;;;19.80;47.30;;;;;;5124258;27;43785;-74
2022/04/04 08:36:31;;;;;;;;;;;19.80;47.20;;;;;;5125631;27;43204;-74
2022/04/04 08:38:57;;;;;;;;;;;19.70;47.20;;;;;;5125712;27;42975;-75
2022/04/04 08:41:23;;;;;;;;;;;19.80;47.20;;;;;;5121447;27;43702;-75
2022/04/04 08:43:51;;;;;;;;;;;19.80;47.20;;;;;;5123678;27;42886;-75
2022/04/04 08:46:17;;;;;;;;;;;19.80;47.20;;;;;;5125278;27;43503;-75
2022/04/04 08:48:43;;;;;;;;;;;19.90;47.20;;;;;;5125366;27;42886;-75
2022/04/04 08:51:08;;;;;;;;;;;19.80;47.10;;;;;;5117482;27;43961;-74
2022/04/04 08:53:38;;;;;;;;;;;19.80;47.10;;;;;;5124763;27;42993;-75
2022/04/04 08:56:05;;;;;;;;;;;19.80;47.10;;;;;;5124745;27;42937;-75
2022/04/04 08:58:31;;;;;;;;;;;19.80;47.10;;;;;;5122148;27;43013;-77
2022/04/04 09:00:57;;;;;;;;;;;19.80;47.10;;;;;;5117281;27;43699;-78
2022/04/04 09:03:23;;;;;;;;;;;19.80;47.00;;;;;;5104548;27;42957;-78
2022/04/04 09:05:50;;;;;;;;;;;19.80;47.10;;;;;;5103079;27;42995;-78
2022/04/04 09:08:15;;;;;;;;;;;19.80;47.10;;;;;;5102262;27;43039;-78
2022/04/04 09:10:43;;;;;;;;;;;19.80;47.00;;;;;;5103540;27;43134;-77
2022/04/04 09:13:12;;;;;;;;;;;19.80;47.00;;;;;;5102786;27;42814;-77
2022/04/04 09:15:49;;;;;;;;;;;19.80;47.00;;;;;;5103247;27;42895;-78
2022/04/04 09:18:15;;;;;;;;;;;19.80;47.00;;;;;;5104200;27;42946;-77
2022/04/04 09:20:47;;;;;;;;;;;19.90;47.00;;;;;;5104434;27;43562;-78
2022/04/04 09:23:13;;;;;;;;;;;19.80;46.90;;;;;;5105178;27;42939;-77
2022/04/04 09:25:38;;;;;;;;;;;19.90;47.00;;;;;;5136000;27;42985;-78
2022/04/04 09:28:17;;;;;;;;;;;19.80;46.90;;;;;;5143701;27;42931;-79
2022/04/04 09:30:43;;;;;;;;;;;19.80;46.90;;;;;;5103006;27;42980;-78
2022/04/04 09:33:12;;;;;;;;;;;19.80;46.90;;;;;;5103658;27;43018;-78
2022/04/04 09:35:47;;;;;;;;;;;19.80;46.90;;;;;;5117230;27;43099;-78
2022/04/04 09:38:13;;;;;;;;;;;19.80;46.90;;;;;;5144897;27;42954;-77
2022/04/04 09:40:39;;;;;;;;;;;19.80;46.90;;;;;;5146784;27;42790;-78
2022/04/04 09:43:04;;;;;;;;;;;19.80;46.80;;;;;;5145879;27;43408;-78
2022/04/04 09:45:30;;;;;;;;;;;19.80;46.80;;;;;;5128765;27;43257;-79
2022/04/04 09:47:57;;;;;;;;;;;19.80;46.80;;;;;;5118263;27;43102;-76
2022/04/04 09:50:42;;;;;;;;;;;19.80;46.80;;;;;;5127032;27;42959;-78
2022/04/04 09:53:21;;;;;;;;;;;19.80;46.80;;;;;;5117593;27;43161;-77
2022/04/04 09:55:55;;;;;;;;;;;19.80;46.80;;;;;;5109399;27;43135;-77
2022/04/04 09:58:22;;;;;;;;;;;19.80;46.80;;;;;;5125741;27;43101;-78
2022/04/04 10:00:49;;;;;;;;;;;19.80;46.70;;;;;;5127724;27;43833;-77
2022/04/04 10:03:18;;;;;;;;;;;19.80;46.70;;;;;;5127593;27;42978;-77
2022/04/04 10:05:46;;;;;;;;;;;19.80;46.70;;;;;;5126888;27;42949;-78
2022/04/04 10:08:17;;;;;;;;;;;19.80;46.70;;;;;;5127486;27;42986;-77
2022/04/04 10:10:43;;;;;;;;;;;19.80;46.70;;;;;;5115392;27;43630;-77
2022/04/04 10:13:09;;;;;;;;;;;19.80;46.70;;;;;;5127550;27;42888;-78
2022/04/04 10:15:36;;;;;;;;;;;19.80;46.70;;;;;;5127487;27;42892;-77
2022/04/04 10:18:02;;;;;;;;;;;19.80;46.70;;;;;;5127549;27;42872;-77
2022/04/04 10:20:28;;;;;;;;;;;19.80;46.70;;;;;;5118116;27;43153;-78
2022/04/04 10:22:54;;;;;;;;;;;19.80;46.70;;;;;;5113561;27;42947;-77
2022/04/04 10:25:22;;;;;;;;;;;19.90;46.70;;;;;;5121258;27;43041;-77
2022/04/04 10:27:48;;;;;;;;;;;19.80;47.20;;;;;;5117749;27;43138;-78
2022/04/04 10:30:16;;;;;;;;;;;19.80;46.60;;;;;;5127153;27;43482;-77
2022/04/04 10:32:50;;;;;;;;;;;19.80;46.60;;;;;;5126325;27;43313;-77
2022/04/04 10:35:18;;;;;;;;;;;19.80;46.60;;;;;;5123464;27;43004;-77
2022/04/04 10:37:44;;;;;;;;;;;19.80;46.60;;;;;;5125936;27;42885;-77
2022/04/04 10:40:20;;;;;;;;;;;19.80;46.60;;;;;;5125921;27;43429;-77
2022/04/04 10:42:48;;;;;;;;;;;19.80;46.60;;;;;;5124928;27;43018;-77
2022/04/04 10:45:15;;;;;;;;;;;19.80;46.60;;;;;;5125853;27;43443;-78
2022/04/04 10:47:44;;;;;;;;;;;19.80;46.60;;;;;;5126203;27;43041;-74
2022/04/04 10:50:17;;;;;;;;;;;19.80;46.60;;;;;;5119728;27;43017;-74
2022/04/04 10:52:43;;;;;;;;;;;19.90;46.60;;;;;;5126377;27;42997;-76
2022/04/04 10:55:25;;;;;;;;;;;19.20;46.20;;;;;;5106400;27;44587;-75
2022/04/04 10:57:51;;;;;;;;;;;19.80;46.50;;;;;;5104607;27;43114;-75
2022/04/04 11:00:17;;;;;;;;;;;19.80;46.50;;;;;;5106811;27;43447;-76
2022/04/04 11:02:44;;;;;;;;;;;19.90;46.70;;;;;;5084206;27;43023;-73
2022/04/04 11:08:02;;;;;;;;;;;19.90;46.60;;;;;;5092904;27;43061;-73
2022/04/04 11:10:39;;;;;;;;;;;19.90;46.50;;;;;;5109668;27;43444;-75
2022/04/04 11:13:08;;;;;;;;;;;19.90;46.60;;;;;;5107904;27;43187;-76
2022/04/04 11:15:40;;;;;;;;;;;19.70;46.80;;;;;;5096737;27;45259;-74
2022/04/04 11:18:05;;;;;;;;;;;19.90;46.70;;;;;;5111067;27;42847;-74
2022/04/04 11:20:31;;;;;;;;;;;19.90;46.60;;;;;;5115767;27;43421;-74
2022/04/04 11:23:03;;;;;;;;;;;19.90;46.60;;;;;;5116747;27;42834;-75
2022/04/04 11:25:34;;;;;;;;;;;19.90;46.60;;;;;;5114422;27;42926;-74
2022/04/04 11:28:02;;;;;;;;;;;19.90;46.70;;;;;;5105514;27;42925;-74
2022/04/04 11:30:27;;;;;;;;;;;19.90;46.70;;;;;;5104430;27;42994;-74
2022/04/04 11:32:57;;;;;;;;;;;19.90;46.70;;;;;;5101943;27;43174;-73
2022/04/04 11:35:27;;;;;;;;;;;19.90;46.70;;;;;;5100217;27;43501;-76
2022/04/04 11:38:00;;;;;;;;;;;19.90;46.80;;;;;;5102833;27;42996;-76
2022/04/04 11:40:34;;;;;;;;;;;19.90;46.80;;;;;;5105205;27;44052;-75
2022/04/04 11:43:02;;;;;;;;;;;19.90;46.80;;;;;;5108060;27;43047;-75
2022/04/04 11:45:30;;;;;;;;;;;19.90;46.80;;;;;;5105978;27;43078;-75
2022/04/04 11:48:02;;;;;;;;;;;19.90;46.80;;;;;;5100375;27;43133;-76
2022/04/04 11:50:30;;;;;;;;;;;19.90;46.80;;;;;;5117683;27;43724;-76
2022/04/04 11:52:59;;;;;;;;;;;19.90;46.90;;;;;;5115947;27;43000;-76
2022/04/04 11:55:25;;;;;;;;;;;19.90;46.90;;;;;;5136748;27;43305;-75
2022/04/04 11:57:56;;;;;;;;;;;20.00;46.90;;;;;;5138504;27;42896;-76
2022/04/04 12:00:22;;;;;;;;;;;19.70;47.20;;;;;;5135317;27;43087;-76
2022/04/04 12:02:48;;;;;;;;;;;20.00;47.00;;;;;;5134709;27;42920;-75
2022/04/04 12:05:14;;;;;;;;;;;20.00;47.00;;;;;;5137577;27;43469;-76
2022/04/04 12:07:41;;;;;;;;;;;19.90;47.00;;;;;;5134255;27;43036;-76
2022/04/04 12:10:07;;;;;;;;;;;20.00;47.00;;;;;;5124327;27;43962;-76
2022/04/04 12:12:33;;;;;;;;;;;19.70;47.20;;;;;;5126428;27;43037;-76
2022/04/04 12:14:59;;;;;;;;;;;20.00;47.10;;;;;;5124393;27;43445;-75
2022/04/04 12:17:25;;;;;;;;;;;20.00;47.10;;;;;;5125447;27;43112;-76
2022/04/04 12:19:52;;;;;;;;;;;19.90;47.40;;;;;;5142398;27;45253;-76
2022/04/04 12:25:03;;;;;;;;;;;20.00;47.20;;;;;;5126041;27;42989;-76
2022/04/04 12:27:29;;;;;;;;;;;20.00;47.20;;;;;;5134033;27;42817;-76
2022/04/04 12:29:59;;;;;;;;;;;20.00;47.20;;;;;;5135851;27;43065;-74
2022/04/04 12:32:25;;;;;;;;;;;20.00;47.30;;;;;;5125105;27;43835;-75
2022/04/04 12:34:54;;;;;;;;;;;20.00;47.20;;;;;;5124110;27;42974;-75
2022/04/04 12:37:20;;;;;;;;;;;20.00;47.30;;;;;;5121327;27;43263;-75
2022/04/04 12:39:49;;;;;;;;;;;20.10;47.30;;;;;;5122266;27;42938;-74
2022/04/04 12:42:15;;;;;;;;;;;20.00;47.30;;;;;;5115727;27;43024;-75
2022/04/04 12:44:40;;;;;;;;;;;20.10;47.40;;;;;;5140755;27;43152;-75
2022/04/04 12:47:07;;;;;;;;;;;20.10;47.40;;;;;;5144430;27;43179;-74
2022/04/04 12:49:33;;;;;;;;;;;20.10;47.40;;;;;;5131417;27;43889;-75
2022/04/04 12:52:10;;;;;;;;;;;20.10;47.40;;;;;;5122311;27;43032;-78
2022/04/04 12:54:39;;;;;;;;;;;20.20;47.50;;;;;;5120527;27;43826;-74
2022/04/04 12:57:07;;;;;;;;;;;20.10;47.90;;;;;;5116407;27;43509;-74
2022/04/04 12:59:54;;;;;;;;;;;20.10;47.80;;;;;;5102634;27;45393;-73
2022/04/04 13:02:19;;;;;;;;;;;20.10;47.60;;;;;;5097778;27;43073;-75
2022/04/04 13:04:48;;;;;;;;;;;20.10;47.70;;;;;;5116574;27;43188;-73
2022/04/04 13:07:16;;;;;;;;;;;20.10;47.70;;;;;;5127625;27;42964;-74
2022/04/04 13:09:48;;;;;;;;;;;20.10;47.60;;;;;;5140795;27;42974;-74
2022/04/04 13:12:35;;;;;;;;;;;20.10;47.70;;;;;;5133372;27;43215;-74
2022/04/04 13:15:04;;;;;;;;;;;20.10;47.80;;;;;;5134501;27;43403;-78
2022/04/04 13:17:36;;;;;;;;;;;20.10;47.90;;;;;;5118469;27;43416;-74
2022/04/04 13:20:04;;;;;;;;;;;20.10;47.80;;;;;;5139320;27;43417;-75
2022/04/04 13:22:33;;;;;;;;;;;20.10;47.70;;;;;;5138135;27;43218;-75
2022/04/04 13:24:58;;;;;;;;;;;20.10;48.80;;;;;;5116801;27;45085;-76
2022/04/04 13:27:24;;;;;;;;;;;20.10;47.90;;;;;;5136119;27;43238;-75
2022/04/04 13:29:50;;;;;;;;;;;20.10;47.80;;;;;;5134327;27;43833;-76
2022/04/04 13:32:16;;;;;;;;;;;20.10;47.80;;;;;;5113926;27;43176;-76
2022/04/04 13:34:42;;;;;;;;;;;20.10;48.80;;;;;;5111575;27;45320;-76
2022/04/04 13:37:08;;;;;;;;;;;20.10;48.20;;;;;;5131558;27;43810;-76
2022/04/04 13:39:34;;;;;;;;;;;20.10;48.20;;;;;;5110934;27;44142;-75
2022/04/04 13:42:04;;;;;;;;;;;20.20;48.10;;;;;;5126115;27;43164;-72
2022/04/04 13:44:30;;;;;;;;;;;21.50;48.70;;;;;;5117630;27;43669;-73
2022/04/04 13:46:56;;;;;;;;;;;20.10;48.00;;;;;;5119222;27;43174;-75
2022/04/04 13:49:22;;;;;;;;;;;20.10;47.90;;;;;;5115613;27;43397;-75
2022/04/04 13:51:47;;;;;;;;;;;20.10;48.00;;;;;;5125158;27;42941;-75
2022/04/04 13:54:13;;;;;;;;;;;20.60;48.70;;;;;;5108671;27;43360;-74
2022/04/04 13:56:41;;;;;;;;;;;20.10;48.00;;;;;;5105307;27;43972;-73
2022/04/04 13:59:06;;;;;;;;;;;20.20;48.10;;;;;;5097750;27;45242;-73
2022/04/04 14:01:32;;;;;;;;;;;20.10;48.00;;;;;;5106058;27;43138;-73
2022/04/04 14:04:01;;;;;;;;;;;20.20;48.10;;;;;;5100017;27;43730;-74
2022/04/04 14:06:26;;;;;;;;;;;20.30;48.40;;;;;;5081583;27;43129;-74
2022/04/04 14:08:53;;;;;;;;;;;20.20;48.80;;;;;;5084499;27;45780;-73
2022/04/04 14:11:18;;;;;;;;;;;20.10;48.20;;;;;;5103557;27;43109;-75
2022/04/04 14:13:45;;;;;;;;;;;20.20;48.20;;;;;;5106595;27;43385;-77
2022/04/04 14:16:11;;;;;;;;;;;20.20;48.30;;;;;;5086131;27;43310;-78
2022/04/04 14:18:37;;;;;;;;;;;18.60;47.50;;;;;;5106178;27;43719;-76
2022/04/04 14:21:04;;;;;;;;;;;20.20;48.50;;;;;;5110996;27;43000;-76